This is the latest recevied weather packets stored in our database for station/object OH2HCY-3. If no packets are shown the sender has not sent any weather packets the latest 10 day(s).
| Time | Temp. | Humidity | Pressure | Rain* | Wind** | Luminosity | Snow |
|---|---|---|---|---|---|---|---|
| 1777707893 | 14.44° C | 50% | 1011.6 hPa | - | - | - | - |
| 1777706750 | 13.89° C | 50% | 1011.7 hPa | - | - | - | - |
| 1777705632 | 13.89° C | 51% | 1011.7 hPa | - | - | - | - |
| 1777704499 | 13.89° C | 50% | 1011.7 hPa | - | - | - | - |
| 1777703472 | 13.89° C | 51% | 1011.7 hPa | - | - | - | - |
| 1777702495 | 12.78° C | 54% | - | - | - | - | - |
| 1777702490 | 12.78° C | 54% | 1011.7 hPa | - | - | - | - |
| 1777701393 | 11.11° C | 59% | 1011.8 hPa | - | - | - | - |
| 1777700370 | 10.56° C | 63% | 1011.9 hPa | - | - | - | - |
| 1777699273 | 8.89° C | 68% | 1012.1 hPa | - | - | - | - |
| 1777698080 | 7.78° C | 72% | 1012.2 hPa | - | - | - | - |
| 1777697015 | 6.11° C | 81% | 1012.2 hPa | - | - | - | - |
| 1777695953 | 4.44° C | 90% | 1012.2 hPa | - | - | - | - |
| 1777694970 | 2.78° C | 88% | 1012.3 hPa | - | - | - | - |
| 1777693967 | 1.67° C | 88% | 1012.4 hPa | - | - | - | - |
| 1777692819 | 1.11° C | 87% | 1012.3 hPa | - | - | - | - |
| 1777691710 | 0.56° C | 87% | 1012.4 hPa | - | - | - | - |
| 1777690580 | 0.56° C | 87% | 1012.5 hPa | - | - | - | - |
| 1777689470 | 0.56° C | 87% | 1012.6 hPa | - | - | - | - |
| 1777688380 | 0.56° C | 86% | 1012.8 hPa | - | - | - | - |
| 1777687375 | 0.56° C | 86% | 1012.9 hPa | - | - | - | - |
| 1777686241 | 1.11° C | 86% | 1013.1 hPa | - | - | - | - |
| 1777685070 | 1.11° C | 87% | 1013.2 hPa | - | - | - | - |
| 1777685065 | 1.11° C | 87% | 1013.2 hPa | - | - | - | - |
| 1777683905 | 1.67° C | 86% | 1013.4 hPa | - | - | - | - |
* Rain since midnight (hover to see other rain measurements)
** Current wind speed in m/s (hover to see current wind gust speed)